Kulusuk, Greenland

8:10 AM WGT on March 27, 2015 (GMT -0300)
Kulusuk | | Change Station
CLOSE
Current Station
Personal Weather Station
Location: Kulusuk Bygd, EASTGREENLAND
Elevation: 90 ft
Nearby Weather Stations

Elev 90 ft 65.58 °N, 37.19 °W | Updated 7 seconds ago

Mostly Cloudy
Mostly Cloudy
23.9 °F
Feels Like 18 °F
N
5.0
Wind Variable Wind from NE
Gusts 8.0 mph

Today
High -- | Low -- °F
--% Chance of Precip.
Yesterday
High -- | Low -- °F
Precip. -- in
5:03 AM 6:06 PM
First Quarter, 51% visible
Pressure 29.06 in
Visibility 6.2 miles
Clouds Mostly Cloudy 6200 ft
Windchill 18 °F
Dew Point 23 °F
Humidity 96%
Rainfall 0.00 in
Snow Depth Not available.
UV 1 out of 12
Pollen Not available.
Air Quality Not available.
Flu Activity Not available.
METAR BGKK 271050Z AUTO 29005KT 220V360 9999NDV BKN062/// M05/M12 Q0984

More Conditions Fewer Conditions

Pressure 29.06 in
Visibility 6.2 miles
Clouds Mostly Cloudy 6200 ft
Windchill 18 °F
Dew Point 23 °F
Humidity 96%
Rainfall 0.00 in
Snow Depth Not available.
UV 1 out of 12
Pollen Not available.
Air Quality Not available.
Flu Activity Not available.
METAR BGKK 271050Z AUTO 29005KT 220V360 9999NDV BKN062/// M05/M12 Q0984

More Conditions Fewer Conditions

10-Day Weather Forecast

Almanac

Astronomy

Mar. 27, 2015 Rise Set
Actual Time
Civil Twilight
Nautical Twilight
Astronomical Twilight
Moon
Length of Visible Light
Length of Day
Tomorrow will be .
, % of the Moon is Illuminated

Today's Extremes

Country Highs Country Lows

Community

WunderPhotos

Upload Photos

1,808,707 photos uploaded!

WunderBlogs® & News

Nearby

Air Quality

  Air Quality AQ Index Pollutant
Not available.

Snow Depth

Station Depth Elevation

Earthquake Activity

City Distance Mag. Time & Date
Minimum magnitude displayed is 2.5.

Coastal Water Temperatures

Place Temperature

Stations

Nearby Weather Stations

Station Location Temp. Windchill Dew Point Humidity Wind Precip. Elev Updated Type